sensor_id;sensor_type;location;lat;lon;timestamp;temperature;humidity
44517;DHT22;30223;17.182;-96.766;2023-11-19T00:01:57;26.00;58.70
44517;DHT22;30223;17.182;-96.766;2023-11-19T00:04:24;26.00;58.80
44517;DHT22;30223;17.182;-96.766;2023-11-19T00:06:56;26.00;58.80
44517;DHT22;30223;17.182;-96.766;2023-11-19T00:09:29;26.00;58.80
44517;DHT22;30223;17.182;-96.766;2023-11-19T00:11:56;26.00;58.70
44517;DHT22;30223;17.182;-96.766;2023-11-19T00:14:22;26.00;58.70
44517;DHT22;30223;17.182;-96.766;2023-11-19T00:16:50;26.00;58.70
44517;DHT22;30223;17.182;-96.766;2023-11-19T00:19:17;26.00;58.80
44517;DHT22;30223;17.182;-96.766;2023-11-19T00:21:44;26.00;58.80
44517;DHT22;30223;17.182;-96.766;2023-11-19T00:24:12;26.00;58.80
44517;DHT22;30223;17.182;-96.766;2023-11-19T00:26:42;26.00;58.90
44517;DHT22;30223;17.182;-96.766;2023-11-19T00:29:09;26.00;58.80
44517;DHT22;30223;17.182;-96.766;2023-11-19T00:31:37;26.00;58.80
44517;DHT22;30223;17.182;-96.766;2023-11-19T00:34:05;25.90;58.70
44517;DHT22;30223;17.182;-96.766;2023-11-19T00:36:32;25.90;58.70
44517;DHT22;30223;17.182;-96.766;2023-11-19T00:38:58;25.90;58.70
44517;DHT22;30223;17.182;-96.766;2023-11-19T00:41:25;25.90;58.70
44517;DHT22;30223;17.182;-96.766;2023-11-19T00:43:52;25.90;58.70
44517;DHT22;30223;17.182;-96.766;2023-11-19T00:46:19;25.90;58.70
44517;DHT22;30223;17.182;-96.766;2023-11-19T00:48:46;25.90;58.70
44517;DHT22;30223;17.182;-96.766;2023-11-19T00:51:17;25.80;58.60
44517;DHT22;30223;17.182;-96.766;2023-11-19T00:53:47;25.90;58.70
44517;DHT22;30223;17.182;-96.766;2023-11-19T00:56:13;25.80;58.60
44517;DHT22;30223;17.182;-96.766;2023-11-19T00:58:41;25.80;58.60
44517;DHT22;30223;17.182;-96.766;2023-11-19T01:01:08;25.80;58.60
44517;DHT22;30223;17.182;-96.766;2023-11-19T01:03:35;25.80;58.60
44517;DHT22;30223;17.182;-96.766;2023-11-19T01:06:02;25.80;58.60
44517;DHT22;30223;17.182;-96.766;2023-11-19T01:08:29;25.80;58.60
44517;DHT22;30223;17.182;-96.766;2023-11-19T01:10:57;25.80;58.80
44517;DHT22;30223;17.182;-96.766;2023-11-19T01:13:23;25.80;58.60
44517;DHT22;30223;17.182;-96.766;2023-11-19T01:15:51;25.80;58.60
44517;DHT22;30223;17.182;-96.766;2023-11-19T01:18:18;25.80;58.50
44517;DHT22;30223;17.182;-96.766;2023-11-19T01:20:45;25.70;58.50
44517;DHT22;30223;17.182;-96.766;2023-11-19T01:23:12;25.80;58.60
44517;DHT22;30223;17.182;-96.766;2023-11-19T01:25:39;25.70;58.50
44517;DHT22;30223;17.182;-96.766;2023-11-19T01:28:06;25.70;58.40
44517;DHT22;30223;17.182;-96.766;2023-11-19T01:30:34;25.70;58.50
44517;DHT22;30223;17.182;-96.766;2023-11-19T01:33:00;25.70;58.40
44517;DHT22;30223;17.182;-96.766;2023-11-19T01:35:27;25.70;58.40
44517;DHT22;30223;17.182;-96.766;2023-11-19T01:37:54;25.70;58.50
44517;DHT22;30223;17.182;-96.766;2023-11-19T01:40:21;25.60;58.40
44517;DHT22;30223;17.182;-96.766;2023-11-19T01:42:48;25.60;58.30
44517;DHT22;30223;17.182;-96.766;2023-11-19T01:45:28;25.60;58.40
44517;DHT22;30223;17.182;-96.766;2023-11-19T01:48:00;25.60;58.40
44517;DHT22;30223;17.182;-96.766;2023-11-19T01:50:30;25.60;58.30
44517;DHT22;30223;17.182;-96.766;2023-11-19T01:52:58;25.60;58.40
44517;DHT22;30223;17.182;-96.766;2023-11-19T01:55:26;25.60;58.40
44517;DHT22;30223;17.182;-96.766;2023-11-19T01:57:59;25.50;58.30
44517;DHT22;30223;17.182;-96.766;2023-11-19T02:00:27;25.50;58.30
44517;DHT22;30223;17.182;-96.766;2023-11-19T02:02:55;25.50;58.30
44517;DHT22;30223;17.182;-96.766;2023-11-19T02:05:23;25.50;58.30
44517;DHT22;30223;17.182;-96.766;2023-11-19T02:07:50;25.50;58.30
44517;DHT22;30223;17.182;-96.766;2023-11-19T02:10:17;25.50;58.30
44517;DHT22;30223;17.182;-96.766;2023-11-19T02:12:46;25.50;58.20
44517;DHT22;30223;17.182;-96.766;2023-11-19T02:15:13;25.50;58.30
44517;DHT22;30223;17.182;-96.766;2023-11-19T02:17:40;25.50;58.20
44517;DHT22;30223;17.182;-96.766;2023-11-19T02:20:07;25.50;58.30
44517;DHT22;30223;17.182;-96.766;2023-11-19T02:22:41;25.40;58.20
44517;DHT22;30223;17.182;-96.766;2023-11-19T02:25:30;25.40;58.20
44517;DHT22;30223;17.182;-96.766;2023-11-19T02:27:59;25.40;58.20
44517;DHT22;30223;17.182;-96.766;2023-11-19T02:30:30;25.40;58.10
44517;DHT22;30223;17.182;-96.766;2023-11-19T02:32:58;25.40;58.30
44517;DHT22;30223;17.182;-96.766;2023-11-19T02:35:28;25.40;58.50
44517;DHT22;30223;17.182;-96.766;2023-11-19T02:37:58;25.30;58.50
44517;DHT22;30223;17.182;-96.766;2023-11-19T02:40:30;25.30;58.40
44517;DHT22;30223;17.182;-96.766;2023-11-19T02:42:56;25.30;58.40
44517;DHT22;30223;17.182;-96.766;2023-11-19T02:45:24;25.30;58.50
44517;DHT22;30223;17.182;-96.766;2023-11-19T02:47:52;25.40;59.20
44517;DHT22;30223;17.182;-96.766;2023-11-19T02:50:19;25.40;57.90
44517;DHT22;30223;17.182;-96.766;2023-11-19T02:52:53;25.40;56.80
44517;DHT22;30223;17.182;-96.766;2023-11-19T02:55:20;25.30;56.80
44517;DHT22;30223;17.182;-96.766;2023-11-19T02:57:46;25.30;56.00
44517;DHT22;30223;17.182;-96.766;2023-11-19T03:00:17;25.20;55.50
44517;DHT22;30223;17.182;-96.766;2023-11-19T03:02:45;25.20;54.40
44517;DHT22;30223;17.182;-96.766;2023-11-19T03:05:23;25.20;54.20
44517;DHT22;30223;17.182;-96.766;2023-11-19T03:07:51;25.20;54.00
44517;DHT22;30223;17.182;-96.766;2023-11-19T03:10:17;25.10;53.70
44517;DHT22;30223;17.182;-96.766;2023-11-19T03:12:45;25.00;53.30
44517;DHT22;30223;17.182;-96.766;2023-11-19T03:15:11;25.00;53.10
44517;DHT22;30223;17.182;-96.766;2023-11-19T03:17:41;25.00;52.10
44517;DHT22;30223;17.182;-96.766;2023-11-19T03:20:12;24.90;52.10
44517;DHT22;30223;17.182;-96.766;2023-11-19T03:22:43;24.90;51.40
44517;DHT22;30223;17.182;-96.766;2023-11-19T03:25:10;24.90;51.50
44517;DHT22;30223;17.182;-96.766;2023-11-19T03:27:37;24.90;51.50
44517;DHT22;30223;17.182;-96.766;2023-11-19T03:30:10;24.80;51.70
44517;DHT22;30223;17.182;-96.766;2023-11-19T03:32:37;24.80;51.20
44517;DHT22;30223;17.182;-96.766;2023-11-19T03:35:05;24.80;50.70
44517;DHT22;30223;17.182;-96.766;2023-11-19T03:37:35;24.80;51.00
44517;DHT22;30223;17.182;-96.766;2023-11-19T03:40:02;24.70;50.30
44517;DHT22;30223;17.182;-96.766;2023-11-19T03:42:30;24.70;50.20
44517;DHT22;30223;17.182;-96.766;2023-11-19T03:44:57;24.70;50.70
44517;DHT22;30223;17.182;-96.766;2023-11-19T03:47:24;24.70;50.00
44517;DHT22;30223;17.182;-96.766;2023-11-19T03:49:51;24.70;51.00
44517;DHT22;30223;17.182;-96.766;2023-11-19T03:52:18;24.60;51.00
44517;DHT22;30223;17.182;-96.766;2023-11-19T03:54:45;24.60;50.40
44517;DHT22;30223;17.182;-96.766;2023-11-19T03:57:15;24.60;49.80
44517;DHT22;30223;17.182;-96.766;2023-11-19T03:59:41;24.60;49.80
44517;DHT22;30223;17.182;-96.766;2023-11-19T04:02:08;24.60;49.90
44517;DHT22;30223;17.182;-96.766;2023-11-19T04:04:35;24.60;49.40
44517;DHT22;30223;17.182;-96.766;2023-11-19T04:07:02;24.50;49.20
44517;DHT22;30223;17.182;-96.766;2023-11-19T04:09:31;24.50;49.30
44517;DHT22;30223;17.182;-96.766;2023-11-19T04:12:03;24.50;49.10
44517;DHT22;30223;17.182;-96.766;2023-11-19T04:14:33;24.50;49.40
44517;DHT22;30223;17.182;-96.766;2023-11-19T04:16:59;24.50;48.60
44517;DHT22;30223;17.182;-96.766;2023-11-19T04:19:26;24.40;49.10
44517;DHT22;30223;17.182;-96.766;2023-11-19T04:21:53;24.40;50.10
44517;DHT22;30223;17.182;-96.766;2023-11-19T04:24:19;24.40;49.20
44517;DHT22;30223;17.182;-96.766;2023-11-19T04:26:46;24.30;48.50
44517;DHT22;30223;17.182;-96.766;2023-11-19T04:29:14;24.40;48.80
44517;DHT22;30223;17.182;-96.766;2023-11-19T04:31:43;24.40;49.00
44517;DHT22;30223;17.182;-96.766;2023-11-19T04:34:13;24.30;48.90
44517;DHT22;30223;17.182;-96.766;2023-11-19T04:36:39;24.30;48.40
44517;DHT22;30223;17.182;-96.766;2023-11-19T04:39:06;24.30;48.60
44517;DHT22;30223;17.182;-96.766;2023-11-19T04:41:51;24.30;49.10
44517;DHT22;30223;17.182;-96.766;2023-11-19T04:44:19;24.30;48.90
44517;DHT22;30223;17.182;-96.766;2023-11-19T04:46:46;24.30;48.80
44517;DHT22;30223;17.182;-96.766;2023-11-19T04:49:13;24.20;49.40
44517;DHT22;30223;17.182;-96.766;2023-11-19T04:51:45;24.20;48.90
44517;DHT22;30223;17.182;-96.766;2023-11-19T04:54:15;24.20;49.30
44517;DHT22;30223;17.182;-96.766;2023-11-19T04:56:45;24.20;48.20
44517;DHT22;30223;17.182;-96.766;2023-11-19T04:59:13;24.20;48.00
44517;DHT22;30223;17.182;-96.766;2023-11-19T05:01:40;24.10;47.80
44517;DHT22;30223;17.182;-96.766;2023-11-19T05:04:07;24.10;48.10
44517;DHT22;30223;17.182;-96.766;2023-11-19T05:06:35;24.00;47.90
44517;DHT22;30223;17.182;-96.766;2023-11-19T05:09:01;24.00;47.90
44517;DHT22;30223;17.182;-96.766;2023-11-19T05:11:30;24.00;48.10
44517;DHT22;30223;17.182;-96.766;2023-11-19T05:13:57;24.00;48.50
44517;DHT22;30223;17.182;-96.766;2023-11-19T05:16:24;24.00;47.00
44517;DHT22;30223;17.182;-96.766;2023-11-19T05:18:51;24.00;47.70
44517;DHT22;30223;17.182;-96.766;2023-11-19T05:21:17;24.00;47.50
44517;DHT22;30223;17.182;-96.766;2023-11-19T05:23:44;23.90;47.80
44517;DHT22;30223;17.182;-96.766;2023-11-19T05:26:18;23.90;47.70
44517;DHT22;30223;17.182;-96.766;2023-11-19T05:28:46;23.90;48.30
44517;DHT22;30223;17.182;-96.766;2023-11-19T05:31:13;23.90;48.20
44517;DHT22;30223;17.182;-96.766;2023-11-19T05:33:40;23.90;48.10
44517;DHT22;30223;17.182;-96.766;2023-11-19T05:36:07;23.90;47.80
44517;DHT22;30223;17.182;-96.766;2023-11-19T05:38:37;23.90;48.00
44517;DHT22;30223;17.182;-96.766;2023-11-19T05:41:04;23.80;47.90
44517;DHT22;30223;17.182;-96.766;2023-11-19T05:43:31;23.80;48.30
44517;DHT22;30223;17.182;-96.766;2023-11-19T05:45:58;23.80;47.80
44517;DHT22;30223;17.182;-96.766;2023-11-19T05:48:26;23.80;48.10
44517;DHT22;30223;17.182;-96.766;2023-11-19T05:50:53;23.80;47.70
44517;DHT22;30223;17.182;-96.766;2023-11-19T05:53:20;23.80;48.20
44517;DHT22;30223;17.182;-96.766;2023-11-19T05:55:47;23.80;47.90
44517;DHT22;30223;17.182;-96.766;2023-11-19T05:58:25;23.80;48.00
44517;DHT22;30223;17.182;-96.766;2023-11-19T06:00:53;23.70;47.90
44517;DHT22;30223;17.182;-96.766;2023-11-19T06:03:19;23.70;48.30
44517;DHT22;30223;17.182;-96.766;2023-11-19T06:05:48;23.70;48.10
44517;DHT22;30223;17.182;-96.766;2023-11-19T06:08:15;23.70;48.00
44517;DHT22;30223;17.182;-96.766;2023-11-19T06:10:42;23.70;47.90
44517;DHT22;30223;17.182;-96.766;2023-11-19T06:13:09;23.60;47.60
44517;DHT22;30223;17.182;-96.766;2023-11-19T06:15:37;23.60;47.90
44517;DHT22;30223;17.182;-96.766;2023-11-19T06:18:04;23.60;48.10
44517;DHT22;30223;17.182;-96.766;2023-11-19T06:20:32;23.60;47.80
44517;DHT22;30223;17.182;-96.766;2023-11-19T06:22:59;23.60;47.80
44517;DHT22;30223;17.182;-96.766;2023-11-19T06:25:26;23.60;48.10
44517;DHT22;30223;17.182;-96.766;2023-11-19T06:27:53;23.60;48.10
44517;DHT22;30223;17.182;-96.766;2023-11-19T06:30:20;23.60;48.40
44517;DHT22;30223;17.182;-96.766;2023-11-19T06:32:47;23.60;48.60
44517;DHT22;30223;17.182;-96.766;2023-11-19T06:35:14;23.60;48.80
44517;DHT22;30223;17.182;-96.766;2023-11-19T06:37:41;23.60;48.90
44517;DHT22;30223;17.182;-96.766;2023-11-19T06:40:08;23.50;48.90
44517;DHT22;30223;17.182;-96.766;2023-11-19T06:42:35;23.50;48.80
44517;DHT22;30223;17.182;-96.766;2023-11-19T06:45:02;23.50;48.60
44517;DHT22;30223;17.182;-96.766;2023-11-19T06:47:29;23.50;48.70
44517;DHT22;30223;17.182;-96.766;2023-11-19T06:49:56;23.50;48.80
44517;DHT22;30223;17.182;-96.766;2023-11-19T06:52:23;23.50;48.80
44517;DHT22;30223;17.182;-96.766;2023-11-19T06:54:50;23.40;48.60
44517;DHT22;30223;17.182;-96.766;2023-11-19T06:57:16;23.50;49.00
44517;DHT22;30223;17.182;-96.766;2023-11-19T06:59:43;23.50;49.20
44517;DHT22;30223;17.182;-96.766;2023-11-19T07:02:10;23.50;49.30
44517;DHT22;30223;17.182;-96.766;2023-11-19T07:04:36;23.40;49.20
44517;DHT22;30223;17.182;-96.766;2023-11-19T07:07:03;23.40;49.30
44517;DHT22;30223;17.182;-96.766;2023-11-19T07:09:29;23.40;49.20
44517;DHT22;30223;17.182;-96.766;2023-11-19T07:11:56;23.40;49.00
44517;DHT22;30223;17.182;-96.766;2023-11-19T07:14:22;23.40;49.00
44517;DHT22;30223;17.182;-96.766;2023-11-19T07:16:49;23.40;49.00
44517;DHT22;30223;17.182;-96.766;2023-11-19T07:19:16;23.30;49.00
44517;DHT22;30223;17.182;-96.766;2023-11-19T07:21:43;23.40;49.00
44517;DHT22;30223;17.182;-96.766;2023-11-19T07:24:12;23.30;48.90
44517;DHT22;30223;17.182;-96.766;2023-11-19T07:26:47;23.30;49.60
44517;DHT22;30223;17.182;-96.766;2023-11-19T07:29:16;23.30;49.10
44517;DHT22;30223;17.182;-96.766;2023-11-19T07:31:43;23.30;49.00
44517;DHT22;30223;17.182;-96.766;2023-11-19T07:34:12;23.20;49.10
44517;DHT22;30223;17.182;-96.766;2023-11-19T07:36:39;23.20;49.00
44517;DHT22;30223;17.182;-96.766;2023-11-19T07:39:07;23.20;49.00
44517;DHT22;30223;17.182;-96.766;2023-11-19T07:41:34;23.20;48.90
44517;DHT22;30223;17.182;-96.766;2023-11-19T07:44:01;23.20;48.90
44517;DHT22;30223;17.182;-96.766;2023-11-19T07:46:28;23.20;49.00
44517;DHT22;30223;17.182;-96.766;2023-11-19T07:48:54;23.10;48.80
44517;DHT22;30223;17.182;-96.766;2023-11-19T07:51:21;23.10;48.80
44517;DHT22;30223;17.182;-96.766;2023-11-19T07:53:47;23.10;48.70
44517;DHT22;30223;17.182;-96.766;2023-11-19T07:56:15;23.10;48.80
44517;DHT22;30223;17.182;-96.766;2023-11-19T07:58:41;23.10;48.70
44517;DHT22;30223;17.182;-96.766;2023-11-19T08:01:08;23.10;48.60
44517;DHT22;30223;17.182;-96.766;2023-11-19T08:03:35;23.10;48.60
44517;DHT22;30223;17.182;-96.766;2023-11-19T08:06:03;23.00;48.60
44517;DHT22;30223;17.182;-96.766;2023-11-19T08:08:30;23.10;48.60
44517;DHT22;30223;17.182;-96.766;2023-11-19T08:10:58;23.00;48.60
44517;DHT22;30223;17.182;-96.766;2023-11-19T08:13:25;23.00;48.60
44517;DHT22;30223;17.182;-96.766;2023-11-19T08:15:51;23.00;48.50
44517;DHT22;30223;17.182;-96.766;2023-11-19T08:18:18;23.00;48.60
44517;DHT22;30223;17.182;-96.766;2023-11-19T08:20:45;23.00;48.60
44517;DHT22;30223;17.182;-96.766;2023-11-19T08:23:15;23.00;48.60
44517;DHT22;30223;17.182;-96.766;2023-11-19T08:25:41;22.90;48.60
44517;DHT22;30223;17.182;-96.766;2023-11-19T08:28:08;22.90;48.60
44517;DHT22;30223;17.182;-96.766;2023-11-19T08:30:34;22.90;48.70
44517;DHT22;30223;17.182;-96.766;2023-11-19T08:33:01;22.90;48.80
44517;DHT22;30223;17.182;-96.766;2023-11-19T08:35:31;22.90;48.80
44517;DHT22;30223;17.182;-96.766;2023-11-19T08:37:58;22.90;48.80
44517;DHT22;30223;17.182;-96.766;2023-11-19T08:40:25;22.90;48.70
44517;DHT22;30223;17.182;-96.766;2023-11-19T08:42:56;22.80;48.60
44517;DHT22;30223;17.182;-96.766;2023-11-19T08:45:23;22.80;48.60
44517;DHT22;30223;17.182;-96.766;2023-11-19T08:47:49;22.80;48.60
44517;DHT22;30223;17.182;-96.766;2023-11-19T08:50:16;22.80;48.60
44517;DHT22;30223;17.182;-96.766;2023-11-19T08:52:43;22.80;48.60
44517;DHT22;30223;17.182;-96.766;2023-11-19T08:55:09;22.80;48.60
44517;DHT22;30223;17.182;-96.766;2023-11-19T08:57:37;22.80;48.70
44517;DHT22;30223;17.182;-96.766;2023-11-19T09:00:04;22.70;48.50
44517;DHT22;30223;17.182;-96.766;2023-11-19T09:02:35;22.70;48.60
44517;DHT22;30223;17.182;-96.766;2023-11-19T09:05:04;22.70;48.60
44517;DHT22;30223;17.182;-96.766;2023-11-19T09:07:31;22.70;48.80
44517;DHT22;30223;17.182;-96.766;2023-11-19T09:09:58;22.70;48.70
44517;DHT22;30223;17.182;-96.766;2023-11-19T09:12:25;22.70;48.60
44517;DHT22;30223;17.182;-96.766;2023-11-19T09:14:51;22.60;48.60
44517;DHT22;30223;17.182;-96.766;2023-11-19T09:17:18;22.60;48.60
44517;DHT22;30223;17.182;-96.766;2023-11-19T09:19:45;22.60;48.70
44517;DHT22;30223;17.182;-96.766;2023-11-19T09:22:11;22.60;48.60
44517;DHT22;30223;17.182;-96.766;2023-11-19T09:24:38;22.60;48.70
44517;DHT22;30223;17.182;-96.766;2023-11-19T09:27:05;22.60;48.60
44517;DHT22;30223;17.182;-96.766;2023-11-19T09:29:34;22.60;48.70
44517;DHT22;30223;17.182;-96.766;2023-11-19T09:32:00;22.50;48.70
44517;DHT22;30223;17.182;-96.766;2023-11-19T09:34:27;22.50;48.80
44517;DHT22;30223;17.182;-96.766;2023-11-19T09:36:54;22.50;48.80
44517;DHT22;30223;17.182;-96.766;2023-11-19T09:39:21;22.50;48.80
44517;DHT22;30223;17.182;-96.766;2023-11-19T09:41:47;22.50;48.80
44517;DHT22;30223;17.182;-96.766;2023-11-19T09:44:15;22.50;48.80
44517;DHT22;30223;17.182;-96.766;2023-11-19T09:46:45;22.40;48.80
44517;DHT22;30223;17.182;-96.766;2023-11-19T09:49:13;22.40;49.40
44517;DHT22;30223;17.182;-96.766;2023-11-19T09:51:41;22.40;48.80
44517;DHT22;30223;17.182;-96.766;2023-11-19T09:54:07;22.40;48.80
44517;DHT22;30223;17.182;-96.766;2023-11-19T09:56:36;22.40;49.50
44517;DHT22;30223;17.182;-96.766;2023-11-19T09:59:04;22.40;48.80
44517;DHT22;30223;17.182;-96.766;2023-11-19T10:01:33;22.30;48.70
44517;DHT22;30223;17.182;-96.766;2023-11-19T10:04:02;22.30;48.80
44517;DHT22;30223;17.182;-96.766;2023-11-19T10:06:29;22.30;48.70
44517;DHT22;30223;17.182;-96.766;2023-11-19T10:08:56;22.30;48.70
44517;DHT22;30223;17.182;-96.766;2023-11-19T10:11:22;22.30;48.70
44517;DHT22;30223;17.182;-96.766;2023-11-19T10:13:49;22.30;48.60
44517;DHT22;30223;17.182;-96.766;2023-11-19T10:16:17;22.30;48.60
44517;DHT22;30223;17.182;-96.766;2023-11-19T10:18:48;22.30;48.60
44517;DHT22;30223;17.182;-96.766;2023-11-19T10:21:19;22.20;48.60
44517;DHT22;30223;17.182;-96.766;2023-11-19T10:23:53;22.20;48.60
44517;DHT22;30223;17.182;-96.766;2023-11-19T10:26:22;22.20;48.50
44517;DHT22;30223;17.182;-96.766;2023-11-19T10:28:49;22.20;48.50
44517;DHT22;30223;17.182;-96.766;2023-11-19T10:31:17;22.20;48.50
44517;DHT22;30223;17.182;-96.766;2023-11-19T10:33:44;22.20;48.50
44517;DHT22;30223;17.182;-96.766;2023-11-19T10:36:14;22.20;48.50
44517;DHT22;30223;17.182;-96.766;2023-11-19T10:38:54;22.20;48.50
44517;DHT22;30223;17.182;-96.766;2023-11-19T10:41:31;22.10;48.50
44517;DHT22;30223;17.182;-96.766;2023-11-19T10:43:59;22.10;48.50
44517;DHT22;30223;17.182;-96.766;2023-11-19T10:46:42;22.10;48.40
44517;DHT22;30223;17.182;-96.766;2023-11-19T10:49:10;22.10;48.50
44517;DHT22;30223;17.182;-96.766;2023-11-19T10:51:37;22.10;48.40
44517;DHT22;30223;17.182;-96.766;2023-11-19T10:54:06;22.10;48.40
44517;DHT22;30223;17.182;-96.766;2023-11-19T10:56:33;22.00;48.30
44517;DHT22;30223;17.182;-96.766;2023-11-19T10:59:01;22.00;48.30
44517;DHT22;30223;17.182;-96.766;2023-11-19T11:01:32;22.00;48.30
44517;DHT22;30223;17.182;-96.766;2023-11-19T11:04:00;22.00;48.40
44517;DHT22;30223;17.182;-96.766;2023-11-19T11:06:28;22.00;48.30
44517;DHT22;30223;17.182;-96.766;2023-11-19T11:08:56;22.00;48.30
44517;DHT22;30223;17.182;-96.766;2023-11-19T11:11:24;21.90;48.20
44517;DHT22;30223;17.182;-96.766;2023-11-19T11:13:53;21.90;48.20
44517;DHT22;30223;17.182;-96.766;2023-11-19T11:16:22;21.90;48.30
44517;DHT22;30223;17.182;-96.766;2023-11-19T11:18:50;21.90;48.20
44517;DHT22;30223;17.182;-96.766;2023-11-19T11:21:21;21.80;48.10
44517;DHT22;30223;17.182;-96.766;2023-11-19T11:27:22;21.90;48.30
44517;DHT22;30223;17.182;-96.766;2023-11-19T11:30:20;21.80;48.20
44517;DHT22;30223;17.182;-96.766;2023-11-19T11:36:06;21.80;48.20
44517;DHT22;30223;17.182;-96.766;2023-11-19T11:38:38;21.70;48.10
44517;DHT22;30223;17.182;-96.766;2023-11-19T11:41:40;21.70;48.00
44517;DHT22;30223;17.182;-96.766;2023-11-19T11:43:59;21.70;48.10
44517;DHT22;30223;17.182;-96.766;2023-11-19T11:49:04;21.70;48.00
44517;DHT22;30223;17.182;-96.766;2023-11-19T11:59:52;21.60;47.90
44517;DHT22;30223;17.182;-96.766;2023-11-19T12:02:21;21.60;47.90
44517;DHT22;30223;17.182;-96.766;2023-11-19T12:04:51;21.60;47.80
44517;DHT22;30223;17.182;-96.766;2023-11-19T12:07:19;21.50;47.80
44517;DHT22;30223;17.182;-96.766;2023-11-19T12:09:51;21.60;47.80
44517;DHT22;30223;17.182;-96.766;2023-11-19T12:20:01;21.50;48.00
44517;DHT22;30223;17.182;-96.766;2023-11-19T12:22:28;21.50;47.90
44517;DHT22;30223;17.182;-96.766;2023-11-19T12:24:55;21.50;47.90
44517;DHT22;30223;17.182;-96.766;2023-11-19T12:27:22;21.40;47.80
44517;DHT22;30223;17.182;-96.766;2023-11-19T12:29:49;21.40;47.80
44517;DHT22;30223;17.182;-96.766;2023-11-19T12:32:16;21.40;47.80
44517;DHT22;30223;17.182;-96.766;2023-11-19T12:34:43;21.40;47.80
44517;DHT22;30223;17.182;-96.766;2023-11-19T12:37:11;21.40;47.80
44517;DHT22;30223;17.182;-96.766;2023-11-19T12:39:37;21.30;47.70
44517;DHT22;30223;17.182;-96.766;2023-11-19T12:42:04;21.30;47.80
44517;DHT22;30223;17.182;-96.766;2023-11-19T12:44:31;21.30;47.70
44517;DHT22;30223;17.182;-96.766;2023-11-19T12:47:02;21.30;47.80
44517;DHT22;30223;17.182;-96.766;2023-11-19T12:49:28;21.20;47.70
44517;DHT22;30223;17.182;-96.766;2023-11-19T12:51:55;21.20;47.70
44517;DHT22;30223;17.182;-96.766;2023-11-19T12:54:37;21.20;47.70
44517;DHT22;30223;17.182;-96.766;2023-11-19T12:57:04;21.20;47.80
44517;DHT22;30223;17.182;-96.766;2023-11-19T12:59:32;21.20;47.80
44517;DHT22;30223;17.182;-96.766;2023-11-19T13:01:58;21.10;47.80
44517;DHT22;30223;17.182;-96.766;2023-11-19T13:04:29;21.10;47.80
44517;DHT22;30223;17.182;-96.766;2023-11-19T13:07:00;21.10;47.80
44517;DHT22;30223;17.182;-96.766;2023-11-19T13:09:28;21.10;47.80
44517;DHT22;30223;17.182;-96.766;2023-11-19T13:11:55;21.10;47.80
44517;DHT22;30223;17.182;-96.766;2023-11-19T13:14:23;21.10;47.80
44517;DHT22;30223;17.182;-96.766;2023-11-19T13:16:49;21.00;47.80
44517;DHT22;30223;17.182;-96.766;2023-11-19T13:19:16;21.10;47.90
44517;DHT22;30223;17.182;-96.766;2023-11-19T13:21:45;21.00;47.90
44517;DHT22;30223;17.182;-96.766;2023-11-19T13:24:14;21.00;47.90
44517;DHT22;30223;17.182;-96.766;2023-11-19T13:26:41;21.00;47.90
44517;DHT22;30223;17.182;-96.766;2023-11-19T13:29:08;20.90;48.00
44517;DHT22;30223;17.182;-96.766;2023-11-19T13:31:36;20.90;48.00
44517;DHT22;30223;17.182;-96.766;2023-11-19T13:34:03;20.90;48.20
44517;DHT22;30223;17.182;-96.766;2023-11-19T13:36:30;20.90;48.20
44517;DHT22;30223;17.182;-96.766;2023-11-19T13:38:57;20.80;48.30
44517;DHT22;30223;17.182;-96.766;2023-11-19T13:41:28;20.90;48.40
44517;DHT22;30223;17.182;-96.766;2023-11-19T13:43:54;20.80;48.40
44517;DHT22;30223;17.182;-96.766;2023-11-19T13:46:21;20.80;48.60
44517;DHT22;30223;17.182;-96.766;2023-11-19T13:48:48;20.80;48.60
44517;DHT22;30223;17.182;-96.766;2023-11-19T13:51:15;20.80;48.70
44517;DHT22;30223;17.182;-96.766;2023-11-19T13:53:42;20.70;48.70
44517;DHT22;30223;17.182;-96.766;2023-11-19T13:56:09;20.70;48.90
44517;DHT22;30223;17.182;-96.766;2023-11-19T13:58:36;20.70;49.00
44517;DHT22;30223;17.182;-96.766;2023-11-19T14:01:03;20.70;49.10
44517;DHT22;30223;17.182;-96.766;2023-11-19T14:03:29;20.70;49.20
44517;DHT22;30223;17.182;-96.766;2023-11-19T14:05:56;20.60;49.20
44517;DHT22;30223;17.182;-96.766;2023-11-19T14:08:24;20.70;49.30
44517;DHT22;30223;17.182;-96.766;2023-11-19T14:10:51;20.70;49.40
44517;DHT22;30223;17.182;-96.766;2023-11-19T14:13:17;20.70;49.40
44517;DHT22;30223;17.182;-96.766;2023-11-19T14:15:44;20.60;49.40
44517;DHT22;30223;17.182;-96.766;2023-11-19T14:18:10;20.60;49.50
44517;DHT22;30223;17.182;-96.766;2023-11-19T14:20:37;20.70;49.50
44517;DHT22;30223;17.182;-96.766;2023-11-19T14:23:05;20.60;49.50
44517;DHT22;30223;17.182;-96.766;2023-11-19T14:25:31;20.60;49.50
44517;DHT22;30223;17.182;-96.766;2023-11-19T14:27:58;20.70;49.50
44517;DHT22;30223;17.182;-96.766;2023-11-19T14:30:24;20.60;49.30
44517;DHT22;30223;17.182;-96.766;2023-11-19T14:32:51;20.60;49.30
44517;DHT22;30223;17.182;-96.766;2023-11-19T14:35:18;20.60;49.30
44517;DHT22;30223;17.182;-96.766;2023-11-19T14:37:46;20.60;49.30
44517;DHT22;30223;17.182;-96.766;2023-11-19T14:40:12;20.60;49.30
44517;DHT22;30223;17.182;-96.766;2023-11-19T14:42:39;20.60;49.20
44517;DHT22;30223;17.182;-96.766;2023-11-19T14:45:08;20.60;49.20
44517;DHT22;30223;17.182;-96.766;2023-11-19T14:47:37;20.60;49.10
44517;DHT22;30223;17.182;-96.766;2023-11-19T14:50:05;20.60;48.80
44517;DHT22;30223;17.182;-96.766;2023-11-19T14:52:32;20.60;48.70
44517;DHT22;30223;17.182;-96.766;2023-11-19T14:55:00;20.60;48.60
44517;DHT22;30223;17.182;-96.766;2023-11-19T14:57:27;20.60;48.50
44517;DHT22;30223;17.182;-96.766;2023-11-19T14:59:53;20.60;48.30
44517;DHT22;30223;17.182;-96.766;2023-11-19T15:02:20;20.60;48.30
44517;DHT22;30223;17.182;-96.766;2023-11-19T15:04:47;20.70;48.30
44517;DHT22;30223;17.182;-96.766;2023-11-19T15:07:14;20.70;48.30
44517;DHT22;30223;17.182;-96.766;2023-11-19T15:09:40;20.70;48.30
44517;DHT22;30223;17.182;-96.766;2023-11-19T15:12:07;20.70;48.20
44517;DHT22;30223;17.182;-96.766;2023-11-19T15:14:34;20.70;48.30
44517;DHT22;30223;17.182;-96.766;2023-11-19T15:17:01;20.70;48.10
44517;DHT22;30223;17.182;-96.766;2023-11-19T15:19:28;20.70;47.90
44517;DHT22;30223;17.182;-96.766;2023-11-19T15:21:54;20.70;47.70
44517;DHT22;30223;17.182;-96.766;2023-11-19T15:24:21;20.70;47.40
44517;DHT22;30223;17.182;-96.766;2023-11-19T15:26:47;20.70;47.20
44517;DHT22;30223;17.182;-96.766;2023-11-19T15:29:14;20.80;47.00
44517;DHT22;30223;17.182;-96.766;2023-11-19T15:31:41;20.80;46.80
44517;DHT22;30223;17.182;-96.766;2023-11-19T15:34:07;20.80;46.80